Time;durP1;ratioP1;P1;durP2;ratioP2;P2;SDS_P1;SDS_P2;PMS_P1;PMS_P2;Temp;Humidity;BMP_temperature;BMP_pressure;BME280_temperature;BME280_humidity;BME280_pressure;Samples;Min_cycle;Max_cycle;Signal;HPM_P1;HPM_P2
2022/02/05 00:06:11;;;;;;;35.88;18.95;;;;;;;1.96;49.92;100708.22;5047364;28;20041;-74
2022/02/05 00:40:08;;;;;;;20.17;15.68;;;;;;;1.77;50.08;100695.38;5070544;28;20529;-75
2022/02/05 00:42:41;;;;;;;25.77;12.63;;;;;;;1.97;50.02;100691.00;5071416;28;20435;-74
2022/02/05 00:45:09;;;;;;;19.17;13.38;;;;;;;1.79;49.87;100657.53;5067575;28;20037;-74
2022/02/05 00:48:28;;;;;;;23.98;16.48;;;;;;;1.89;49.84;100680.34;5051789;28;20457;-74
2022/02/05 00:54:19;;;;;;;25.40;16.08;;;;;;;1.92;49.95;100661.47;5073053;28;20035;-73
2022/02/05 00:59:16;;;;;;;31.35;17.95;;;;;;;1.80;50.37;100674.78;5073445;28;20033;-73
2022/02/05 01:01:42;;;;;;;27.63;15.82;;;;;;;1.63;50.47;100650.84;5070179;28;20492;-73
2022/02/05 01:04:08;;;;;;;25.30;16.95;;;;;;;1.67;51.04;100661.38;5070020;28;20040;-72
2022/02/05 01:06:34;;;;;;;28.77;17.83;;;;;;;1.62;50.99;100637.06;5072964;28;20098;-72
2022/02/05 01:12:49;;;;;;;26.60;18.05;;;;;;;1.78;50.55;100664.41;5072976;28;20039;-73
2022/02/05 01:15:47;;;;;;;23.30;16.25;;;;;;;1.81;50.57;100668.81;5072810;28;20383;-74
2022/02/05 01:18:55;;;;;;;24.48;17.38;;;;;;;1.80;51.08;100667.03;5060850;28;20044;-73
2022/02/05 01:21:35;;;;;;;22.75;17.75;;;;;;;1.81;51.12;100661.06;5051227;28;20057;-72
2022/02/05 01:24:05;;;;;;;24.10;16.60;;;;;;;1.65;51.02;100636.28;5062614;28;20041;-73
2022/02/05 01:26:37;;;;;;;25.83;15.88;;;;;;;1.60;51.05;100663.69;5060674;28;21265;-74
2022/02/05 01:29:09;;;;;;;20.42;14.73;;;;;;;1.59;51.63;100641.19;5069562;28;20037;-72
2022/02/05 01:31:43;;;;;;;26.55;15.40;;;;;;;1.70;51.48;100660.63;5068379;28;20050;-76
2022/02/05 01:34:57;;;;;;;22.42;16.20;;;;;;;1.74;51.24;100661.63;5068931;28;20503;-73
2022/02/05 01:55:02;;;;;;;23.73;18.60;;;;;;;1.38;52.99;100654.16;5056715;28;20029;-74
2022/02/05 01:57:54;;;;;;;24.30;16.00;;;;;;;1.45;52.60;100649.31;5050377;28;20052;-73
2022/02/05 02:13:44;;;;;;;19.00;12.03;;;;;;;1.58;52.32;100634.28;5066692;28;20131;-74
2022/02/05 02:19:22;;;;;;;26.70;17.08;;;;;;;1.67;51.87;100635.53;5068733;28;20128;-73
2022/02/05 02:21:55;;;;;;;23.23;14.93;;;;;;;1.37;52.21;100609.31;5072885;28;20033;-73
2022/02/05 02:24:31;;;;;;;25.67;11.82;;;;;;;1.26;52.83;100615.75;5047372;28;20044;-74
2022/02/05 02:30:29;;;;;;;21.73;16.65;;;;;;;1.35;52.96;100629.06;5052438;28;20021;-74
2022/02/05 02:33:05;;;;;;;35.72;17.25;;;;;;;1.59;52.29;100615.34;5049281;28;20075;-74
2022/02/05 02:35:32;;;;;;;20.15;17.27;;;;;;;1.32;52.30;100594.47;5036063;28;20120;-74
2022/02/05 02:38:54;;;;;;;24.83;16.83;;;;;;;1.63;52.83;100619.81;5041748;28;20075;-74
2022/02/05 02:42:06;;;;;;;24.10;17.67;;;;;;;1.46;53.10;100617.44;5053501;28;20060;-74
2022/02/05 02:44:31;;;;;;;30.15;20.48;;;;;;;1.27;52.84;100612.38;5061502;28;20495;-74
2022/02/05 02:46:57;;;;;;;29.40;18.15;;;;;;;1.77;51.88;100610.00;5066518;28;20033;-73
2022/02/05 02:49:54;;;;;;;33.05;22.35;;;;;;;1.48;52.73;100589.97;5066672;28;20045;-73
2022/02/05 02:58:18;;;;;;;36.17;19.55;;;;;;;1.59;53.01;100625.69;5060620;28;20067;-73
2022/02/05 03:00:43;;;;;;;24.23;18.40;;;;;;;1.14;53.29;100582.53;5047934;28;20541;-73
2022/02/05 03:03:09;;;;;;;34.15;18.23;;;;;;;1.63;52.05;100612.06;5059936;28;20033;-73
2022/02/05 03:05:35;;;;;;;24.33;18.33;;;;;;;1.16;51.74;100552.47;5063026;28;20029;-73
2022/02/05 03:08:22;;;;;;;25.27;18.27;;;;;;;1.44;52.26;100626.84;5062933;28;20048;-73
2022/02/05 03:10:47;;;;;;;25.20;18.50;;;;;;;1.41;52.10;100600.88;5061705;28;20392;-74
2022/02/05 03:13:41;;;;;;;24.80;17.60;;;;;;;1.53;52.64;100615.13;5066203;28;20040;-74
2022/02/05 03:19:48;;;;;;;30.63;19.90;;;;;;;1.59;51.63;100605.00;5069838;28;20091;-73
2022/02/05 03:22:15;;;;;;;21.88;16.27;;;;;;;1.68;51.69;100615.69;5069456;28;20045;-75
2022/02/05 03:24:41;;;;;;;24.45;13.82;;;;;;;1.58;51.40;100614.47;5072676;28;20041;-73
2022/02/05 03:27:07;;;;;;;28.45;17.65;;;;;;;1.54;51.26;100606.53;5070574;28;20491;-76
2022/02/05 03:29:36;;;;;;;23.38;17.35;;;;;;;1.24;51.57;100561.44;5063337;28;20116;-73
2022/02/05 03:32:41;;;;;;;22.55;16.60;;;;;;;1.46;51.39;100616.56;5062644;28;20110;-73
2022/02/05 03:39:04;;;;;;;22.88;13.93;;;;;;;1.57;51.17;100614.41;5070533;28;20047;-73
2022/02/05 03:42:16;;;;;;;21.88;18.58;;;;;;;1.63;51.20;100605.19;5061919;28;20080;-74
2022/02/05 03:44:42;;;;;;;32.00;19.23;;;;;;;1.15;52.26;100594.66;5050774;28;20045;-74
2022/02/05 03:47:07;;;;;;;23.30;18.92;;;;;;;1.51;51.16;100598.66;5038222;28;20086;-74
2022/02/05 03:49:33;;;;;;;24.13;17.85;;;;;;;1.67;51.76;100601.91;5052271;28;20033;-73
2022/02/05 03:52:36;;;;;;;27.98;18.00;;;;;;;1.67;51.68;100613.97;5051637;28;20041;-73
2022/02/05 03:58:23;;;;;;;25.23;17.00;;;;;;;1.80;50.92;100603.28;5051744;28;20043;-73
2022/02/05 04:00:49;;;;;;;23.17;18.48;;;;;;;1.60;51.08;100588.69;5049315;28;20389;-74
2022/02/05 04:03:14;;;;;;;28.83;18.95;;;;;;;1.76;51.25;100614.31;5052325;28;20135;-73
2022/02/05 04:05:39;;;;;;;26.75;19.40;;;;;;;1.77;51.57;100600.53;5052273;28;20025;-73
2022/02/05 04:11:55;;;;;;;31.55;19.23;;;;;;;1.57;50.89;100581.69;5055585;28;20051;-73
2022/02/05 04:17:05;;;;;;;21.42;13.20;;;;;;;1.89;50.48;100613.94;5069480;28;20409;-73
2022/02/05 04:19:30;;;;;;;34.33;20.17;;;;;;;1.79;51.47;100614.41;5073380;28;20033;-73
2022/02/05 04:21:56;;;;;;;35.92;19.75;;;;;;;1.90;50.80;100615.72;5071066;28;20090;-73
2022/02/05 04:24:21;;;;;;;26.27;18.02;;;;;;;2.02;50.80;100614.44;5069684;28;20037;-73
2022/02/05 04:26:47;;;;;;;21.88;17.45;;;;;;;1.95;50.26;100590.03;5065076;28;20535;-74
2022/02/05 04:29:13;;;;;;;26.98;19.05;;;;;;;2.06;50.87;100630.13;5064970;28;20020;-73
2022/02/05 04:31:38;;;;;;;29.55;18.75;;;;;;;2.04;50.87;100616.25;5071322;28;20040;-74
2022/02/05 04:34:05;;;;;;;29.17;17.55;;;;;;;2.04;50.41;100621.41;5051887;28;20036;-74
2022/02/05 04:36:33;;;;;;;25.48;17.55;;;;;;;2.05;51.07;100625.75;5053264;28;20045;-74
2022/02/05 04:39:11;;;;;;;25.30;18.45;;;;;;;1.68;51.28;100608.81;5052778;28;20052;-75
2022/02/05 04:45:36;;;;;;;22.10;16.75;;;;;;;1.66;51.70;100636.34;5035470;28;20043;-74
2022/02/05 05:08:36;;;;;;;23.60;16.90;;;;;;;2.16;51.12;100605.47;5073491;28;20059;-73
2022/02/05 05:21:43;;;;;;;20.35;15.57;;;;;;;2.16;51.47;100609.78;5072581;28;20425;-74
2022/02/05 05:24:08;;;;;;;25.33;15.35;;;;;;;1.92;52.09;100576.06;5072402;28;20036;-74
2022/02/05 05:29:56;;;;;;;25.42;16.80;;;;;;;2.14;52.13;100589.00;5051248;28;20056;-74
2022/02/05 05:32:21;;;;;;;22.50;16.13;;;;;;;2.28;51.21;100628.34;5052682;28;20376;-74
2022/02/05 05:34:47;;;;;;;30.08;18.23;;;;;;;2.14;51.04;100609.69;5050924;28;20041;-74
2022/02/05 05:37:12;;;;;;;23.80;15.73;;;;;;;2.33;51.29;100629.38;5041921;28;20056;-74
2022/02/05 05:40:26;;;;;;;30.60;19.55;;;;;;;2.50;50.53;100624.81;5053332;28;20032;-74
2022/02/05 05:42:59;;;;;;;31.67;18.40;;;;;;;2.44;51.58;100602.16;5043304;28;20095;-74
2022/02/05 05:48:14;;;;;;;25.67;17.73;;;;;;;2.46;51.22;100625.53;5054053;28;20056;-74
2022/02/05 05:56:28;;;;;;;30.35;18.70;;;;;;;2.52;50.83;100608.50;5077052;28;20404;-74
2022/02/05 05:59:28;;;;;;;31.65;19.55;;;;;;;2.43;51.08;100620.22;5074369;28;20052;-74
2022/02/05 06:05:54;;;;;;;25.63;17.60;;;;;;;2.37;51.30;100615.72;5075013;28;20070;-74
2022/02/05 06:08:19;;;;;;;21.33;16.65;;;;;;;2.37;51.13;100618.31;5053684;28;20049;-73
2022/02/05 06:10:45;;;;;;;26.92;17.85;;;;;;;2.31;51.26;100620.66;5058962;28;20094;-73
2022/02/05 06:13:11;;;;;;;35.50;19.73;;;;;;;2.35;50.87;100627.72;5067507;28;20056;-73
2022/02/05 06:22:49;;;;;;;27.90;19.65;;;;;;;2.39;52.13;100631.28;5070379;28;20167;-74
2022/02/05 06:28:36;;;;;;;23.60;18.08;;;;;;;2.54;50.58;100613.75;5058209;28;20052;-74
2022/02/05 06:31:01;;;;;;;22.80;17.50;;;;;;;2.65;50.54;100625.38;5055374;28;20053;-73
2022/02/05 06:33:27;;;;;;;31.42;18.45;;;;;;;2.58;51.09;100641.53;5071956;28;20045;-73
2022/02/05 06:39:15;;;;;;;28.30;18.73;;;;;;;2.94;49.74;100648.81;5073019;28;20494;-73
2022/02/05 06:41:40;;;;;;;26.20;18.42;;;;;;;3.07;49.43;100650.13;5072662;28;20099;-75
2022/02/05 06:44:06;;;;;;;24.83;18.17;;;;;;;2.92;50.00;100630.59;5055102;28;20021;-74
2022/02/05 06:46:31;;;;;;;28.42;18.48;;;;;;;3.10;49.10;100614.81;5072203;28;20452;-73
2022/02/05 06:56:07;;;;;;;22.02;16.98;;;;;;;3.46;49.02;100637.56;5052738;28;20052;-73
2022/02/05 07:02:30;;;;;;;26.63;15.50;;;;;;;3.76;48.00;100644.59;5069606;28;20047;-72
2022/02/05 07:05:13;;;;;;;20.67;16.33;;;;;;;3.45;47.92;100615.06;5054146;28;20053;-72
2022/02/05 07:11:00;;;;;;;24.20;16.05;;;;;;;3.77;47.77;100610.91;5063776;28;20110;-76
2022/02/05 07:29:13;;;;;;;19.17;13.15;;;;;;;4.25;46.52;100653.84;5052712;28;20522;-73
2022/02/05 07:31:41;;;;;;;26.58;16.58;;;;;;;4.11;46.02;100650.84;5064901;28;20075;-74
2022/02/05 07:34:40;;;;;;;20.63;14.32;;;;;;;4.31;45.97;100654.03;5053348;28;20063;-74
2022/02/05 07:40:28;;;;;;;23.13;13.85;;;;;;;4.21;45.26;100632.13;5054024;28;20090;-74
2022/02/05 07:42:53;;;;;;;25.15;15.00;;;;;;;4.43;45.09;100650.94;5055360;28;20040;-74
2022/02/05 07:45:19;;;;;;;25.90;17.65;;;;;;;4.12;45.41;100636.13;5073735;28;20033;-75
2022/02/05 07:47:46;;;;;;;26.77;17.30;;;;;;;4.34;45.52;100648.94;5073863;28;20039;-75
2022/02/05 07:50:44;;;;;;;26.13;17.25;;;;;;;4.55;44.81;100650.38;5072732;28;20032;-74
2022/02/05 07:56:31;;;;;;;31.55;20.20;;;;;;;4.77;44.22;100657.91;5074603;28;20039;-74
2022/02/05 08:05:40;;;;;;;26.40;19.35;;;;;;;4.72;44.68;100658.66;5050806;28;20051;-75
2022/02/05 08:08:09;;;;;;;29.65;19.10;;;;;;;4.70;44.43;100669.00;5053493;28;20033;-75
2022/02/05 08:10:38;;;;;;;30.60;19.85;;;;;;;4.72;44.71;100664.72;5058941;28;20040;-74
2022/02/05 08:13:04;;;;;;;30.48;20.70;;;;;;;4.78;44.36;100657.09;5071604;28;20036;-76
2022/02/05 08:22:09;;;;;;;24.55;19.77;;;;;;;4.99;43.91;100614.31;5057151;28;20044;-75
2022/02/05 08:27:56;;;;;;;30.98;19.83;;;;;;;5.08;44.09;100644.03;5072943;28;20139;-74
2022/02/05 08:31:15;;;;;;;24.63;19.27;;;;;;;5.13;43.97;100645.84;5071064;28;20049;-75
2022/02/05 08:37:03;;;;;;;33.50;21.45;;;;;;;5.34;44.60;100642.91;5053028;28;20036;-75
2022/02/05 08:39:29;;;;;;;25.75;20.10;;;;;;;5.03;44.49;100622.25;5051510;28;20051;-75
2022/02/05 08:41:54;;;;;;;27.38;20.67;;;;;;;5.32;44.26;100637.69;5052775;28;20453;-75
2022/02/05 08:44:20;;;;;;;30.92;22.55;;;;;;;5.50;44.03;100635.56;5052790;28;20333;-74
2022/02/05 08:47:40;;;;;;;35.25;19.65;;;;;;;5.59;43.75;100637.47;5053324;28;20071;-74
2022/02/05 08:57:14;;;;;;;33.55;22.40;;;;;;;5.76;44.18;100626.56;5059697;28;20522;-73
2022/02/05 09:03:09;;;;;;;31.27;19.33;;;;;;;6.07;42.88;100620.38;5071269;28;20380;-76
2022/02/05 09:06:11;;;;;;;41.50;20.63;;;;;;;6.09;43.78;100601.31;5071526;28;20028;-74
2022/02/05 09:14:33;;;;;;;24.95;19.13;;;;;;;6.07;42.71;100587.38;5071747;28;20052;-75
2022/02/05 09:23:20;;;;;;;34.60;24.52;;;;;;;6.80;42.10;100597.50;5050723;28;20534;-74
2022/02/05 09:25:45;;;;;;;29.88;21.27;;;;;;;6.76;41.88;100593.94;5049162;28;20029;-74
2022/02/05 09:28:12;;;;;;;27.17;18.73;;;;;;;6.64;41.60;100577.19;5049844;28;20063;-75
2022/02/05 09:58:05;;;;;;;23.67;15.80;;;;;;;10.53;34.76;100571.81;5057088;27;20626;-78
2022/02/05 10:00:31;;;;;;;22.60;15.38;;;;;;;8.84;36.21;100575.97;5029433;28;20117;-74
2022/02/05 10:02:57;;;;;;;27.67;14.10;;;;;;;8.28;38.09;100563.13;5029286;28;20034;-71
2022/02/05 10:09:06;;;;;;;20.90;13.63;;;;;;;7.67;39.23;100563.22;5049858;28;20385;-71
2022/02/05 10:11:49;;;;;;;19.05;13.85;;;;;;;7.91;39.29;100562.69;5047740;28;20076;-71
2022/02/05 10:14:17;;;;;;;31.75;17.02;;;;;;;7.98;39.98;100564.50;5029631;28;20077;-71
2022/02/05 10:16:53;;;;;;;27.50;16.83;;;;;;;8.20;39.95;100569.16;5046427;28;20041;-71
2022/02/05 10:19:23;;;;;;;18.00;14.23;;;;;;;8.04;39.99;100554.16;5049391;28;20053;-72
2022/02/05 10:25:17;;;;;;;20.00;16.35;;;;;;;7.99;40.30;100561.06;5049746;28;20052;-72
2022/02/05 10:31:05;;;;;;;23.10;16.35;;;;;;;8.38;40.09;100560.66;5049805;28;20114;-71
2022/02/05 10:33:34;;;;;;;28.02;17.55;;;;;;;8.33;40.00;100524.84;5047253;28;20147;-72
2022/02/05 10:36:17;;;;;;;27.52;16.88;;;;;;;8.56;39.97;100515.53;5048414;28;20511;-72
2022/02/05 10:43:55;;;;;;;26.33;17.10;;;;;;;8.64;39.77;100500.81;5048281;28;20110;-73
2022/02/05 10:46:21;;;;;;;30.15;15.85;;;;;;;8.81;39.82;100502.69;5046458;28;20053;-73
2022/02/05 10:48:47;;;;;;;22.83;16.85;;;;;;;9.20;39.14;100503.84;5064020;28;20428;-74
2022/02/05 10:51:13;;;;;;;23.67;17.83;;;;;;;9.41;38.58;100501.41;5049214;28;20029;-73
2022/02/05 10:57:21;;;;;;;24.70;15.98;;;;;;;9.88;37.70;100513.88;5047852;28;20440;-72
2022/02/05 11:05:15;;;;;;;22.00;15.65;;;;;;;9.76;37.75;100512.94;5048352;28;20064;-71
2022/02/05 11:08:04;;;;;;;16.77;12.02;;;;;;;11.04;35.89;100494.00;5043500;28;20038;-72
2022/02/05 11:19:17;;;;;;;14.65;11.13;;;;;;;11.15;36.13;100499.25;5037013;28;20115;-71
2022/02/05 11:21:44;;;;;;;21.48;10.40;;;;;;;11.70;35.11;100493.00;5036858;28;20029;-72
2022/02/05 11:24:11;;;;;;;18.40;11.75;;;;;;;12.24;33.71;100489.31;5031259;28;20033;-70
2022/02/05 11:37:08;;;;;;;18.08;12.50;;;;;;;11.55;34.97;100468.50;5034821;28;20084;-71
2022/02/05 11:39:47;;;;;;;15.35;10.48;;;;;;;11.70;34.73;100470.22;5031748;28;20116;-72
2022/02/05 11:42:27;;;;;;;17.88;13.18;;;;;;;11.73;34.55;100472.84;5034277;28;20040;-72
2022/02/05 11:44:55;;;;;;;20.60;10.98;;;;;;;11.65;35.00;100460.59;5031191;28;20535;-72
2022/02/05 11:51:12;;;;;;;24.35;10.55;;;;;;;11.45;35.41;100460.66;5034298;28;20052;-72
2022/02/05 11:53:56;;;;;;;18.10;10.43;;;;;;;11.71;35.14;100465.84;5034293;28;20047;-72
2022/02/05 11:56:34;;;;;;;18.60;11.57;;;;;;;11.20;35.59;100469.47;5033590;28;20050;-72
2022/02/05 11:59:00;;;;;;;21.60;12.30;;;;;;;10.87;36.34;100462.50;5033818;28;20201;-73
2022/02/05 12:05:15;;;;;;;20.48;11.48;;;;;;;11.34;36.23;100463.31;5031873;28;20047;-72
2022/02/05 12:08:06;;;;;;;18.77;12.77;;;;;;;11.25;35.94;100452.84;5033904;28;20132;-72
2022/02/05 12:10:40;;;;;;;22.17;12.73;;;;;;;11.14;36.19;100448.50;5033556;28;20098;-72
2022/02/05 12:13:35;;;;;;;16.67;11.77;;;;;;;11.08;36.56;100458.13;5028516;28;20068;-72
2022/02/05 12:19:27;;;;;;;22.23;13.43;;;;;;;11.05;36.23;100448.50;5030146;28;20041;-70
2022/02/05 12:22:04;;;;;;;28.05;12.90;;;;;;;10.88;36.89;100452.88;5033448;28;20171;-70
2022/02/05 12:25:04;;;;;;;22.98;12.90;;;;;;;10.87;36.42;100451.16;5017668;28;20544;-70
2022/02/05 12:30:51;;;;;;;22.88;13.07;;;;;;;11.07;36.35;100451.09;5025515;28;20067;-70
2022/02/05 12:33:17;;;;;;;18.08;12.98;;;;;;;11.09;36.56;100459.88;5042584;28;20393;-70
2022/02/05 12:35:52;;;;;;;18.10;13.25;;;;;;;11.07;36.63;100453.72;5030904;28;20022;-71
2022/02/05 12:38:19;;;;;;;17.02;13.00;;;;;;;11.20;36.68;100463.34;5043930;28;20407;-71
2022/02/05 12:40:50;;;;;;;17.60;12.65;;;;;;;11.19;36.39;100465.09;5028246;28;20041;-73
2022/02/05 12:43:19;;;;;;;19.48;11.98;;;;;;;10.95;37.01;100459.88;5030674;28;20115;-74
2022/02/05 12:45:59;;;;;;;18.30;11.30;;;;;;;10.84;37.46;100451.13;5029845;28;20481;-76
2022/02/05 12:48:28;;;;;;;20.77;13.05;;;;;;;11.25;36.59;100444.97;5030225;28;20041;-77
2022/02/05 12:50:56;;;;;;;21.90;12.77;;;;;;;11.26;36.55;100452.84;5030913;28;20210;-78
2022/02/05 12:53:39;;;;;;;18.98;14.25;;;;;;;11.47;37.21;100458.91;5033586;28;20044;-78
2022/02/05 12:56:12;;;;;;;16.42;13.18;;;;;;;11.27;36.99;100451.94;5019652;28;20476;-77
2022/02/05 13:08:51;;;;;;;15.63;10.68;;;;;;;11.11;37.14;100414.34;4993154;28;20414;-77
2022/02/05 13:11:28;;;;;;;21.42;11.93;;;;;;;11.20;37.04;100437.94;4993756;28;20026;-77
2022/02/05 13:26:54;;;;;;;18.92;12.65;;;;;;;11.18;37.60;100447.59;5003594;28;20071;-78
2022/02/05 13:29:35;;;;;;;14.40;10.85;;;;;;;11.21;37.61;100438.81;5009651;28;20033;-79
2022/02/05 13:35:22;;;;;;;19.45;13.07;;;;;;;11.44;37.46;100446.66;5013569;28;20044;-77
2022/02/05 13:37:53;;;;;;;26.08;12.02;;;;;;;11.37;37.26;100445.78;5040280;28;20049;-78
2022/02/05 13:40:22;;;;;;;21.05;13.48;;;;;;;11.56;37.39;100432.59;5032200;28;20083;-78
2022/02/05 13:42:50;;;;;;;22.83;12.82;;;;;;;11.48;37.41;100432.63;5032341;28;20034;-78
2022/02/05 13:45:30;;;;;;;21.25;13.45;;;;;;;11.50;37.27;100423.00;5026343;28;20037;-78
2022/02/05 13:51:19;;;;;;;18.33;12.52;;;;;;;11.10;38.43;100417.00;5032697;28;20481;-77
2022/02/05 13:53:53;;;;;;;18.02;13.85;;;;;;;11.35;38.09;100429.16;5026696;28;20022;-77
2022/02/05 13:56:20;;;;;;;26.08;16.92;;;;;;;11.31;38.00;100414.31;5026952;28;20025;-77
2022/02/05 13:58:46;;;;;;;21.27;17.17;;;;;;;11.42;37.71;100419.50;5032579;28;20052;-77
2022/02/05 14:01:35;;;;;;;35.72;19.38;;;;;;;11.28;38.02;100427.41;5024598;28;20048;-77
2022/02/05 14:11:29;;;;;;;46.80;26.48;;;;;;;11.23;38.33;100429.19;5027588;28;20526;-78
2022/02/05 14:14:00;;;;;;;34.67;20.50;;;;;;;11.11;38.53;100421.34;5026012;28;20053;-77
2022/02/05 14:16:35;;;;;;;48.72;15.55;;;;;;;10.89;39.21;100413.50;5028923;28;20045;-77
2022/02/05 14:19:53;;;;;;;38.28;20.17;;;;;;;11.17;38.75;100427.47;5024112;28;20053;-78
2022/02/05 14:23:04;;;;;;;31.60;21.38;;;;;;;11.14;38.68;100440.63;5018619;28;20042;-78
2022/02/05 14:25:34;;;;;;;42.38;23.85;;;;;;;11.05;39.27;100442.34;5031851;28;20053;-77
2022/02/05 14:28:11;;;;;;;38.90;21.40;;;;;;;11.29;38.54;100433.56;5028470;28;20033;-77
2022/02/05 14:30:40;;;;;;;42.30;28.33;;;;;;;11.13;38.63;100430.97;5026010;28;20045;-77
2022/02/05 14:33:08;;;;;;;36.88;23.45;;;;;;;11.04;39.55;100440.63;5027269;28;20560;-77
2022/02/05 14:40:45;;;;;;;31.10;19.42;;;;;;;11.01;39.13;100454.63;5029328;28;20051;-77
2022/02/05 14:43:12;;;;;;;27.55;18.45;;;;;;;10.98;39.77;100452.00;5029895;28;20052;-77
2022/02/05 14:45:38;;;;;;;40.28;20.20;;;;;;;11.09;39.54;100463.34;5027097;28;20064;-76
2022/02/05 14:48:04;;;;;;;28.55;20.25;;;;;;;11.01;39.30;100438.88;5035428;28;20045;-76
2022/02/05 14:50:29;;;;;;;32.55;20.15;;;;;;;10.92;39.75;100444.13;5035361;28;20112;-76
2022/02/05 14:52:55;;;;;;;27.65;17.77;;;;;;;10.84;40.26;100454.66;5028888;28;20489;-77
2022/02/05 14:55:21;;;;;;;33.75;18.38;;;;;;;10.82;40.11;100453.78;5015730;28;20033;-77
2022/02/05 14:57:47;;;;;;;34.25;23.80;;;;;;;10.87;40.11;100443.28;5026126;28;20041;-77
2022/02/05 15:00:13;;;;;;;33.45;24.98;;;;;;;10.98;39.61;100459.91;5045701;28;20428;-74
2022/02/05 15:02:39;;;;;;;35.47;20.77;;;;;;;10.92;39.80;100444.13;5016919;28;20072;-75
2022/02/05 15:05:11;;;;;;;26.65;21.17;;;;;;;10.87;40.01;100449.38;5035393;28;20036;-72
2022/02/05 15:10:58;;;;;;;31.17;19.83;;;;;;;10.59;40.56;100461.63;5034997;28;20110;-72
2022/02/05 15:16:45;;;;;;;31.75;19.65;;;;;;;10.75;40.43;100481.75;5034884;28;20171;-75
2022/02/05 15:19:11;;;;;;;27.70;20.63;;;;;;;10.66;40.66;100486.13;5034647;28;20096;-75
2022/02/05 15:21:38;;;;;;;28.83;18.85;;;;;;;10.59;40.73;100466.88;5034995;28;20026;-75
2022/02/05 15:24:06;;;;;;;26.95;20.42;;;;;;;10.61;40.85;100485.25;5034653;28;20120;-73
2022/02/05 15:26:33;;;;;;;24.92;17.98;;;;;;;10.47;41.26;100480.00;5035143;28;20113;-75
2022/02/05 15:29:00;;;;;;;31.95;18.48;;;;;;;10.49;41.28;100481.75;5034459;28;20045;-75
2022/02/05 15:31:25;;;;;;;35.45;19.48;;;;;;;10.26;41.51;100470.31;5050005;28;20499;-75
2022/02/05 15:37:19;;;;;;;41.55;23.92;;;;;;;10.31;41.75;100489.56;5034321;28;20075;-75
2022/02/05 15:49:31;;;;;;;25.48;19.20;;;;;;;9.85;43.29;100489.38;5012215;28;20087;-74
2022/02/05 15:51:59;;;;;;;37.55;20.70;;;;;;;9.78;43.52;100490.22;5030397;28;20041;-76
2022/02/05 15:54:28;;;;;;;35.25;24.33;;;;;;;9.94;43.56;100492.91;5034456;28;20021;-75
2022/02/05 16:02:15;;;;;;;31.35;21.55;;;;;;;9.69;44.47;100499.81;5034206;28;20608;-75
2022/02/05 16:04:41;;;;;;;41.53;21.88;;;;;;;9.73;44.59;100508.56;5029816;28;20033;-75
2022/02/05 16:07:07;;;;;;;30.90;21.35;;;;;;;9.72;44.79;100510.31;5030080;28;20038;-74
2022/02/05 16:09:33;;;;;;;29.02;20.05;;;;;;;9.64;44.99;100509.38;5029385;28;20026;-74
2022/02/05 16:15:20;;;;;;;34.95;21.30;;;;;;;9.37;45.88;100501.38;5029564;28;20096;-74
2022/02/05 16:17:48;;;;;;;29.55;18.85;;;;;;;9.28;46.23;100517.91;5028967;28;20025;-77
2022/02/05 16:20:15;;;;;;;29.55;18.27;;;;;;;9.47;45.65;100524.13;5029498;28;20028;-76
2022/02/05 16:22:40;;;;;;;34.70;21.35;;;;;;;9.48;46.13;100528.47;5029432;28;20057;-75
2022/02/05 16:28:30;;;;;;;35.40;21.20;;;;;;;9.32;46.68;100529.25;5029809;28;20377;-76
2022/02/05 16:34:18;;;;;;;29.73;19.48;;;;;;;9.30;46.88;100531.88;5030013;28;20057;-76
2022/02/05 16:36:47;;;;;;;28.98;19.70;;;;;;;9.14;47.22;100519.53;5027635;28;20042;-76
2022/02/05 16:39:14;;;;;;;34.97;21.92;;;;;;;9.18;47.12;100523.94;5029655;28;20539;-75
2022/02/05 16:45:04;;;;;;;39.58;21.52;;;;;;;9.12;47.23;100535.22;5024936;28;20168;-74
2022/02/05 16:47:30;;;;;;;34.70;22.08;;;;;;;8.98;47.56;100537.72;5029737;28;20029;-74
2022/02/05 16:49:55;;;;;;;38.25;21.50;;;;;;;8.83;48.01;100525.41;5028120;28;20406;-74
2022/02/05 16:52:24;;;;;;;35.10;21.77;;;;;;;8.75;48.23;100529.66;5026299;28;20045;-77
2022/02/05 16:58:11;;;;;;;45.28;21.08;;;;;;;8.77;48.54;100525.31;5029736;28;20084;-75
2022/02/05 17:00:37;;;;;;;35.05;21.90;;;;;;;8.84;48.62;100534.13;5028820;28;20428;-77
2022/02/05 17:03:04;;;;;;;35.72;23.33;;;;;;;8.82;48.49;100539.31;5029199;28;20033;-75
2022/02/05 17:05:34;;;;;;;34.13;21.52;;;;;;;9.00;48.00;100543.84;5027756;28;20033;-77
2022/02/05 17:12:10;;;;;;;30.63;21.40;;;;;;;8.81;48.62;100555.03;5017143;28;20060;-77
2022/02/05 17:14:56;;;;;;;31.08;23.52;;;;;;;8.78;48.77;100541.91;4996461;28;20176;-77
2022/02/05 17:20:52;;;;;;;39.75;21.35;;;;;;;8.72;49.24;100547.97;4996463;28;20054;-72
2022/02/05 17:23:19;;;;;;;43.72;23.85;;;;;;;8.64;49.08;100537.44;4997625;28;20036;-73
2022/02/05 17:25:46;;;;;;;41.40;25.02;;;;;;;8.54;49.59;100537.31;5013419;28;20053;-76
2022/02/05 17:28:12;;;;;;;46.20;21.98;;;;;;;8.59;49.73;100551.31;5015255;28;20034;-76
2022/02/05 17:30:38;;;;;;;36.45;24.48;;;;;;;8.52;49.90;100562.56;5013735;28;20408;-77
2022/02/05 17:33:07;;;;;;;36.70;24.25;;;;;;;8.54;49.81;100538.19;5013692;28;20069;-76
2022/02/05 17:35:36;;;;;;;38.72;26.63;;;;;;;8.48;50.15;100551.22;5015926;28;20033;-76
2022/02/05 17:42:19;;;;;;;39.00;26.60;;;;;;;8.56;49.88;100564.34;5015678;28;20096;-76
2022/02/05 17:44:44;;;;;;;38.50;26.15;;;;;;;8.40;50.46;100565.91;5012387;28;20180;-73
2022/02/05 17:47:11;;;;;;;37.22;28.10;;;;;;;8.38;50.47;100557.16;5005424;28;20030;-73
2022/02/05 17:49:37;;;;;;;38.50;29.10;;;;;;;8.47;50.38;100562.50;5008902;28;20061;-74
2022/02/05 17:59:04;;;;;;;42.15;28.42;;;;;;;8.51;50.55;100571.28;5012534;28;20501;-73
2022/02/05 18:01:31;;;;;;;;;;;;;;;8.51;50.45;100573.91;5008824;28;20050;-73
2022/02/05 18:03:57;;;;;;;43.05;29.90;;;;;;;8.50;50.49;100578.25;5012529;28;19917;-72
2022/02/05 18:06:30;;;;;;;34.45;25.67;;;;;;;8.52;50.42;100583.50;5004628;28;20048;-72
2022/02/05 18:09:11;;;;;;;38.42;27.52;;;;;;;8.30;51.00;100575.38;5010758;28;20030;-75
2022/02/05 18:11:43;;;;;;;43.22;28.15;;;;;;;8.25;50.51;100550.91;5006694;28;20076;-73
2022/02/05 18:14:46;;;;;;;39.63;28.38;;;;;;;8.44;50.77;100583.41;4994771;28;20065;-75
2022/02/05 18:17:13;;;;;;;33.03;26.43;;;;;;;8.38;50.61;100596.38;5004399;28;20490;-74
2022/02/05 18:19:49;;;;;;;36.00;26.48;;;;;;;8.37;51.10;100599.84;5015182;28;20516;-75
2022/02/05 18:25:36;;;;;;;34.85;26.10;;;;;;;8.03;52.01;100605.53;5012773;28;20045;-75
2022/02/05 18:28:01;;;;;;;43.10;25.48;;;;;;;8.14;51.63;100607.41;5009879;28;20042;-74
2022/02/05 18:30:27;;;;;;;36.60;25.55;;;;;;;8.02;52.18;100602.91;5001510;28;20042;-75
2022/02/05 18:32:52;;;;;;;35.55;27.02;;;;;;;7.99;52.33;100615.94;5002719;28;20045;-75
2022/02/05 18:35:23;;;;;;;43.00;26.58;;;;;;;7.89;52.67;100621.88;5010245;28;20330;-74
2022/02/05 18:37:49;;;;;;;37.70;28.35;;;;;;;7.81;52.79;100622.63;5009137;28;20076;-78
2022/02/05 18:40:19;;;;;;;45.00;25.92;;;;;;;7.82;52.64;100627.03;4994947;28;20069;-76
2022/02/05 18:42:45;;;;;;;35.05;25.92;;;;;;;7.75;52.84;100625.19;5004666;28;20064;-75
2022/02/05 18:45:12;;;;;;;37.33;27.02;;;;;;;7.67;53.43;100634.63;5013157;28;20541;-76
2022/02/05 18:47:38;;;;;;;44.00;30.42;;;;;;;7.60;53.19;100636.25;5003396;28;20037;-74
2022/02/05 18:50:03;;;;;;;50.38;28.98;;;;;;;7.64;53.57;100652.84;5008604;28;20076;-74
2022/02/05 18:52:29;;;;;;;46.65;27.42;;;;;;;7.48;53.61;100645.63;5006905;28;20466;-74
2022/02/05 18:54:54;;;;;;;35.33;28.17;;;;;;;7.36;53.96;100646.31;5008349;28;20041;-74
2022/02/05 18:57:20;;;;;;;43.13;28.02;;;;;;;7.19;54.69;100636.47;5007036;28;20042;-76
2022/02/05 18:59:52;;;;;;;41.90;27.85;;;;;;;7.58;53.90;100637.06;4993909;28;20025;-74